createdAt,value
2024-02-12T00:00:00.862Z,3.57
2024-02-12T00:00:33.826Z,3.40
2024-02-12T00:01:05.954Z,3.40
2024-02-12T00:01:48.097Z,3.50
2024-02-12T00:02:21.026Z,3.33
2024-02-12T00:02:53.091Z,3.20
2024-02-12T00:03:25.947Z,3.20
2024-02-12T00:03:57.815Z,2.70
2024-02-12T00:04:30.470Z,3.10
2024-02-12T00:05:07.312Z,3.40
2024-02-12T00:05:39.539Z,3.73
2024-02-12T00:06:11.645Z,3.50
2024-02-12T00:06:44.476Z,3.33
2024-02-12T00:07:18.031Z,3.13
2024-02-12T00:07:49.972Z,3.03
2024-02-12T00:08:22.308Z,3.23
2024-02-12T00:08:54.335Z,3.40
2024-02-12T00:09:26.749Z,3.17
2024-02-12T00:09:58.692Z,3.40
2024-02-12T00:10:31.022Z,3.23
2024-02-12T00:11:03.834Z,3.53
2024-02-12T00:11:36.323Z,3.13
2024-02-12T00:12:09.396Z,3.60
2024-02-12T00:12:42.215Z,3.53
2024-02-12T00:13:14.081Z,3.67
2024-02-12T00:13:46.044Z,3.83
2024-02-12T00:14:22.524Z,3.47
2024-02-12T00:14:54.865Z,3.43
2024-02-12T00:15:28.217Z,3.50
2024-02-12T00:16:00.148Z,3.63
2024-02-12T00:16:32.071Z,3.20
2024-02-12T00:17:06.163Z,3.43
2024-02-12T00:17:39.107Z,3.50
2024-02-12T00:18:11.615Z,3.60
2024-02-12T00:18:46.555Z,3.33
2024-02-12T00:19:18.947Z,3.57
2024-02-12T00:19:51.273Z,3.03
2024-02-12T00:20:23.254Z,3.40
2024-02-12T00:20:55.135Z,3.47
2024-02-12T00:21:28.919Z,3.97
2024-02-12T00:22:01.383Z,3.87
2024-02-12T00:22:36.125Z,3.83
2024-02-12T00:23:08.198Z,3.13
2024-02-12T00:23:40.201Z,2.87
2024-02-12T00:24:12.148Z,2.73
2024-02-12T00:24:44.026Z,3.00
2024-02-12T00:25:17.345Z,3.40
2024-02-12T00:25:49.837Z,2.97
2024-02-12T00:26:26.015Z,3.03
2024-02-12T00:27:04.447Z,3.23
2024-02-12T00:27:36.788Z,2.77
2024-02-12T00:28:09.098Z,2.93
2024-02-12T00:28:40.986Z,2.70
2024-02-12T00:29:14.558Z,3.17
2024-02-12T00:29:48.118Z,3.30
2024-02-12T00:30:20.530Z,3.33
2024-02-12T00:30:52.382Z,3.00
2024-02-12T00:31:24.317Z,3.30
2024-02-12T00:31:59.638Z,3.50
2024-02-12T00:32:32.287Z,3.37
2024-02-12T00:33:10.662Z,3.33
2024-02-12T00:33:42.964Z,3.13
2024-02-12T00:34:15.085Z,3.20
2024-02-12T00:34:47.041Z,3.33
2024-02-12T00:35:18.973Z,3.17
2024-02-12T00:35:50.881Z,3.27
2024-02-12T00:36:22.778Z,3.53
2024-02-12T00:36:54.620Z,3.53
2024-02-12T00:37:26.534Z,2.77
2024-02-12T00:37:58.685Z,3.07
2024-02-12T00:38:30.736Z,3.20
2024-02-12T00:39:05.983Z,2.90
2024-02-12T00:39:38.768Z,3.50
2024-02-12T00:40:13.296Z,3.03
2024-02-12T00:40:46.018Z,3.17
2024-02-12T00:41:22.036Z,3.03
2024-02-12T00:41:54.292Z,3.27
2024-02-12T00:42:26.115Z,3.27
2024-02-12T00:42:58.992Z,3.13
2024-02-12T00:43:30.966Z,2.63
2024-02-12T00:44:05.206Z,2.97
2024-02-12T00:44:38.602Z,2.97
2024-02-12T00:45:12.101Z,3.03
2024-02-12T00:45:44.382Z,3.00
2024-02-12T00:46:19.770Z,3.03
2024-02-12T00:46:55.638Z,2.97
2024-02-12T00:47:27.854Z,2.87
2024-02-12T00:47:59.928Z,3.03
2024-02-12T00:48:33.035Z,3.23
2024-02-12T00:49:05.110Z,2.93
2024-02-12T00:49:36.953Z,2.80
2024-02-12T00:50:09.559Z,3.20
2024-02-12T00:50:41.620Z,2.90
2024-02-12T00:51:14.109Z,2.80
2024-02-12T00:51:46.092Z,3.23
2024-02-12T00:52:19.337Z,3.20
2024-02-12T00:52:51.185Z,3.07
2024-02-12T00:53:23.176Z,3.00
2024-02-12T00:53:56.524Z,2.67
2024-02-12T00:54:31.146Z,2.87
2024-02-12T00:55:04.202Z,3.00
2024-02-12T00:55:36.045Z,3.27
2024-02-12T00:56:08.031Z,2.83
2024-02-12T00:56:44.468Z,3.07
2024-02-12T00:57:16.346Z,3.10
2024-02-12T00:57:48.273Z,3.20
2024-02-12T00:58:20.199Z,3.30
2024-02-12T00:58:52.180Z,2.93
2024-02-12T00:59:25.254Z,3.27
2024-02-12T00:59:58.385Z,3.30
2024-02-12T01:00:30.357Z,3.27
2024-02-12T01:01:05.173Z,3.03
2024-02-12T01:01:37.142Z,2.90
2024-02-12T01:02:12.822Z,3.20
2024-02-12T01:02:46.857Z,2.90
2024-02-12T01:03:18.818Z,2.97
2024-02-12T01:03:51.499Z,2.90
2024-02-12T01:04:23.643Z,2.80
2024-02-12T01:04:57.951Z,2.77
2024-02-12T01:05:30.652Z,2.80
2024-02-12T01:06:02.695Z,3.00
2024-02-12T01:06:35.138Z,2.97
2024-02-12T01:07:07.002Z,3.07
2024-02-12T01:07:40.517Z,2.73
2024-02-12T01:08:12.369Z,3.07
2024-02-12T01:08:45.480Z,3.07
2024-02-12T01:09:18.230Z,3.07
2024-02-12T01:09:50.705Z,3.17
2024-02-12T01:10:23.200Z,3.10
2024-02-12T01:10:55.315Z,2.97
2024-02-12T01:11:29.548Z,2.97
2024-02-12T01:12:01.613Z,3.10
2024-02-12T01:12:33.439Z,2.83
2024-02-12T01:13:05.427Z,2.77
2024-02-12T01:13:37.462Z,2.83
2024-02-12T01:14:09.535Z,2.63
2024-02-12T01:14:41.391Z,2.77
2024-02-12T01:15:13.792Z,2.83
2024-02-12T01:15:50.359Z,2.80
2024-02-12T01:16:22.966Z,2.77
2024-02-12T01:16:56.698Z,2.67
2024-02-12T01:17:33.054Z,3.10
2024-02-12T01:18:10.975Z,3.47
2024-02-12T01:18:43.831Z,2.83
2024-02-12T01:19:15.931Z,2.53
2024-02-12T01:19:48.515Z,2.47
2024-02-12T01:20:20.580Z,2.77
2024-02-12T01:20:53.661Z,2.73
2024-02-12T01:21:26.739Z,2.57
2024-02-12T01:22:00.343Z,2.60
2024-02-12T01:22:32.252Z,2.63
2024-02-12T01:23:04.542Z,2.83
2024-02-12T01:23:36.634Z,2.80
2024-02-12T01:24:08.564Z,2.73
2024-02-12T01:24:40.466Z,2.33
2024-02-12T01:25:13.205Z,2.87
2024-02-12T01:25:45.697Z,3.10
2024-02-12T01:26:17.657Z,2.90
2024-02-12T01:26:49.593Z,2.73
2024-02-12T01:27:21.422Z,3.03
2024-02-12T01:27:54.710Z,2.97
2024-02-12T01:28:26.802Z,3.00
2024-02-12T01:28:58.687Z,2.97
2024-02-12T01:29:30.957Z,2.83
2024-02-12T01:30:04.586Z,3.03
2024-02-12T01:30:37.599Z,2.47
2024-02-12T01:31:19.133Z,2.90
2024-02-12T01:31:53.607Z,2.83
2024-02-12T01:32:27.059Z,2.77
2024-02-12T01:32:59.157Z,2.70
2024-02-12T01:33:31.775Z,2.57
2024-02-12T01:34:05.875Z,2.70
2024-02-12T01:34:38.701Z,2.47
2024-02-12T01:35:12.535Z,2.77
2024-02-12T01:35:44.612Z,2.67
2024-02-12T01:36:17.899Z,3.10
2024-02-12T01:36:49.977Z,3.07
2024-02-12T01:37:23.930Z,2.73
2024-02-12T01:37:56.148Z,2.67
2024-02-12T01:38:28.102Z,2.80
2024-02-12T01:38:59.988Z,2.83
2024-02-12T01:39:31.848Z,3.23
2024-02-12T01:40:04.093Z,2.90
2024-02-12T01:40:36.155Z,2.80
2024-02-12T01:41:08.160Z,2.77
2024-02-12T01:41:40.097Z,2.87
2024-02-12T01:42:15.104Z,3.13
2024-02-12T01:42:46.997Z,2.73
2024-02-12T01:43:28.121Z,2.93
2024-02-12T01:43:59.999Z,2.87
2024-02-12T01:44:31.942Z,2.63
2024-02-12T01:45:13.789Z,2.77
2024-02-12T01:45:46.875Z,2.77
2024-02-12T01:46:20.988Z,2.90
2024-02-12T01:46:52.938Z,2.97
2024-02-12T01:47:25.741Z,2.97
2024-02-12T01:48:04.363Z,2.87
2024-02-12T01:48:38.019Z,2.67
2024-02-12T01:49:11.680Z,2.67
2024-02-12T01:49:44.867Z,2.63
2024-02-12T01:50:17.445Z,2.80
2024-02-12T01:50:49.875Z,3.17
2024-02-12T01:51:21.868Z,2.93
2024-02-12T01:51:55.481Z,3.10
2024-02-12T01:52:31.199Z,3.07
2024-02-12T01:53:03.618Z,3.10
2024-02-12T01:53:40.216Z,2.97
2024-02-12T01:54:15.382Z,2.80
2024-02-12T01:54:50.805Z,2.93
2024-02-12T01:55:24.545Z,2.63
2024-02-12T01:55:56.560Z,2.53
2024-02-12T01:56:31.071Z,3.03
2024-02-12T01:57:04.193Z,2.97
2024-02-12T01:57:36.032Z,2.97
2024-02-12T01:58:08.825Z,3.13
2024-02-12T01:58:42.226Z,3.20
2024-02-12T01:59:20.124Z,3.50
2024-02-12T01:59:52.483Z,3.07
2024-02-12T02:00:26.850Z,2.90
2024-02-12T02:00:59.300Z,2.97
2024-02-12T02:01:31.294Z,3.17
2024-02-12T02:02:03.206Z,3.03
2024-02-12T02:02:35.145Z,3.20
2024-02-12T02:03:07.065Z,3.47
2024-02-12T02:03:40.434Z,3.50
2024-02-12T02:04:13.299Z,2.90
2024-02-12T02:04:45.649Z,3.10
2024-02-12T02:05:17.667Z,3.07
2024-02-12T02:05:49.663Z,3.03
2024-02-12T02:06:21.701Z,3.27
2024-02-12T02:06:56.462Z,3.40
2024-02-12T02:07:28.963Z,3.43
2024-02-12T02:08:01.921Z,3.20
2024-02-12T02:08:38.391Z,3.23
2024-02-12T02:09:10.597Z,3.40
2024-02-12T02:09:44.119Z,3.67
2024-02-12T02:10:16.520Z,3.57
2024-02-12T02:10:49.921Z,3.50
2024-02-12T02:11:22.294Z,3.50
2024-02-12T02:11:54.214Z,3.30
2024-02-12T02:12:28.522Z,3.10
2024-02-12T02:13:01.128Z,2.97
2024-02-12T02:13:43.769Z,3.50
2024-02-12T02:14:15.842Z,3.47
2024-02-12T02:14:47.819Z,3.43
2024-02-12T02:15:20.750Z,3.50
2024-02-12T02:15:52.586Z,3.70
2024-02-12T02:16:24.435Z,3.77
2024-02-12T02:16:57.076Z,3.53
2024-02-12T02:17:29.352Z,3.37
2024-02-12T02:18:05.669Z,3.60
2024-02-12T02:18:38.164Z,3.53
2024-02-12T02:19:11.294Z,3.23
2024-02-12T02:19:43.707Z,3.30
2024-02-12T02:20:16.490Z,3.43
2024-02-12T02:20:48.523Z,3.53
2024-02-12T02:21:23.909Z,3.57
2024-02-12T02:21:55.783Z,3.23
2024-02-12T02:22:30.327Z,3.33
2024-02-12T02:23:03.985Z,3.23
2024-02-12T02:23:36.658Z,3.67
2024-02-12T02:24:08.730Z,3.73
2024-02-12T02:24:40.599Z,3.37
2024-02-12T02:25:12.916Z,3.47
2024-02-12T02:25:44.886Z,3.53
2024-02-12T02:26:16.757Z,3.50
2024-02-12T02:26:48.621Z,3.70
2024-02-12T02:27:21.436Z,3.83
2024-02-12T02:27:53.269Z,3.03
2024-02-12T02:28:26.061Z,3.30
2024-02-12T02:28:59.717Z,3.50
2024-02-12T02:29:31.648Z,3.67
2024-02-12T02:30:09.076Z,3.53
2024-02-12T02:30:43.266Z,3.17
2024-02-12T02:31:15.178Z,3.50
2024-02-12T02:31:47.712Z,3.20
2024-02-12T02:32:19.535Z,2.93
2024-02-12T02:32:51.597Z,3.57
2024-02-12T02:33:23.775Z,3.50
2024-02-12T02:33:55.848Z,3.30
2024-02-12T02:34:27.727Z,3.30
2024-02-12T02:34:59.686Z,3.37
2024-02-12T02:35:31.781Z,3.70
2024-02-12T02:36:03.937Z,3.40
2024-02-12T02:36:36.343Z,3.40
2024-02-12T02:37:08.450Z,3.53
2024-02-12T02:37:40.281Z,3.87
2024-02-12T02:38:15.802Z,3.60
2024-02-12T02:38:47.818Z,3.40
2024-02-12T02:39:19.822Z,3.23
2024-02-12T02:39:51.851Z,3.47
2024-02-12T02:40:23.718Z,3.53
2024-02-12T02:40:55.938Z,3.40
2024-02-12T02:41:27.975Z,3.60
2024-02-12T02:42:01.354Z,4.37
2024-02-12T02:42:33.262Z,3.63
2024-02-12T02:43:05.100Z,3.47
2024-02-12T02:43:38.559Z,3.53
2024-02-12T02:44:10.501Z,3.70
2024-02-12T02:44:45.422Z,4.00
2024-02-12T02:45:17.415Z,3.73
2024-02-12T02:45:49.379Z,3.70
2024-02-12T02:46:30.448Z,3.83
2024-02-12T02:47:03.960Z,3.77
2024-02-12T02:47:38.482Z,3.33
2024-02-12T02:48:10.771Z,3.37
2024-02-12T02:48:42.873Z,3.60
2024-02-12T02:49:15.885Z,3.73
2024-02-12T02:49:48.549Z,3.43
2024-02-12T02:50:20.647Z,3.83
2024-02-12T02:50:54.091Z,3.90
2024-02-12T02:51:29.492Z,3.83
2024-02-12T02:52:01.387Z,3.97
2024-02-12T02:52:35.369Z,4.23
2024-02-12T02:53:10.151Z,4.17
2024-02-12T02:53:42.316Z,3.80
2024-02-12T02:54:15.209Z,3.47
2024-02-12T02:54:48.367Z,3.73
2024-02-12T02:55:20.509Z,3.93
2024-02-12T02:55:52.546Z,3.93
2024-02-12T02:56:24.850Z,4.13
2024-02-12T02:56:58.473Z,3.87
2024-02-12T02:57:30.384Z,3.97
2024-02-12T02:58:07.088Z,4.13
2024-02-12T02:58:38.922Z,3.80
2024-02-12T02:59:11.053Z,4.23
2024-02-12T02:59:43.441Z,4.03
2024-02-12T03:00:16.714Z,4.13
2024-02-12T03:00:48.706Z,3.93
2024-02-12T03:01:21.026Z,3.57
2024-02-12T03:01:53.193Z,3.80
2024-02-12T03:02:25.266Z,4.23
2024-02-12T03:02:57.999Z,4.07
2024-02-12T03:03:30.451Z,3.47
2024-02-12T03:04:03.232Z,3.53
2024-02-12T03:04:36.783Z,3.33
2024-02-12T03:05:10.282Z,3.60
2024-02-12T03:05:42.486Z,4.00
2024-02-12T03:06:14.861Z,3.87
2024-02-12T03:06:46.928Z,3.50
2024-02-12T03:07:18.845Z,3.87
2024-02-12T03:07:50.920Z,4.37
2024-02-12T03:08:22.817Z,3.77
2024-02-12T03:08:55.485Z,4.07
2024-02-12T03:09:27.378Z,4.07
2024-02-12T03:09:59.240Z,3.80
2024-02-12T03:10:31.624Z,4.17
2024-02-12T03:11:05.736Z,4.17
2024-02-12T03:11:41.425Z,3.87
2024-02-12T03:12:14.099Z,3.77
2024-02-12T03:12:46.872Z,3.90
2024-02-12T03:13:18.735Z,3.77
2024-02-12T03:13:51.949Z,3.87
2024-02-12T03:14:24.034Z,3.97
2024-02-12T03:14:56.004Z,3.60
2024-02-12T03:15:27.980Z,4.00
2024-02-12T03:15:59.800Z,3.60
2024-02-12T03:16:33.834Z,3.93
2024-02-12T03:17:05.870Z,3.87
2024-02-12T03:17:40.631Z,3.73
2024-02-12T03:18:12.705Z,4.10
2024-02-12T03:18:47.664Z,4.03
2024-02-12T03:19:19.740Z,4.47
2024-02-12T03:19:51.678Z,3.90
2024-02-12T03:20:26.011Z,3.67
2024-02-12T03:20:57.994Z,3.70
2024-02-12T03:21:29.874Z,4.20
2024-02-12T03:22:01.738Z,4.33
2024-02-12T03:22:34.611Z,3.63
2024-02-12T03:23:06.514Z,3.57
2024-02-12T03:23:38.558Z,3.97
2024-02-12T03:24:10.456Z,4.00
2024-02-12T03:24:42.301Z,3.87
2024-02-12T03:25:14.252Z,3.57
2024-02-12T03:25:46.116Z,3.77
2024-02-12T03:26:18.226Z,3.67
2024-02-12T03:26:52.166Z,3.53
2024-02-12T03:27:24.825Z,3.83
2024-02-12T03:27:56.740Z,4.57
2024-02-12T03:28:28.545Z,4.60
2024-02-12T03:29:01.358Z,4.30
2024-02-12T03:29:34.039Z,4.47
2024-02-12T03:30:08.418Z,4.30
2024-02-12T03:30:40.611Z,4.50
2024-02-12T03:31:12.783Z,4.20
2024-02-12T03:31:44.657Z,4.00
2024-02-12T03:32:16.595Z,3.63
2024-02-12T03:32:48.543Z,3.87
2024-02-12T03:33:20.488Z,4.07
2024-02-12T03:33:54.365Z,4.07
2024-02-12T03:34:30.674Z,4.27
2024-02-12T03:35:02.794Z,3.73
2024-02-12T03:35:34.736Z,3.87
2024-02-12T03:36:06.577Z,4.10
2024-02-12T03:36:44.293Z,4.33
2024-02-12T03:37:20.201Z,3.90
2024-02-12T03:37:52.033Z,4.13
2024-02-12T03:38:26.976Z,4.27
2024-02-12T03:38:59.974Z,4.40
2024-02-12T03:39:31.863Z,4.63
2024-02-12T03:40:04.724Z,4.43
2024-02-12T03:40:36.568Z,4.03
2024-02-12T03:41:08.715Z,3.97
2024-02-12T03:41:40.668Z,4.10
2024-02-12T03:42:12.841Z,4.17
2024-02-12T03:42:44.802Z,4.37
2024-02-12T03:43:16.912Z,6.63
2024-02-12T03:43:48.751Z,16.60
2024-02-12T03:44:20.587Z,24.73
2024-02-12T03:44:52.559Z,22.00
2024-02-12T03:45:25.481Z,13.37
2024-02-12T03:45:57.461Z,7.03
2024-02-12T03:46:40.103Z,5.83
2024-02-12T03:47:12.073Z,4.70
2024-02-12T03:47:46.069Z,5.30
2024-02-12T03:48:36.848Z,5.73
2024-02-12T03:49:27.588Z,6.90
2024-02-12T03:50:18.033Z,5.17
2024-02-12T03:51:08.217Z,4.97
2024-02-12T03:51:58.127Z,5.77
2024-02-12T03:52:48.508Z,6.40
2024-02-12T03:53:40.758Z,5.40
2024-02-12T03:54:31.433Z,4.67
2024-02-12T03:55:22.086Z,4.60
2024-02-12T03:56:12.586Z,4.80
2024-02-12T03:57:03.340Z,5.10
2024-02-12T03:57:57.661Z,5.10
2024-02-12T03:58:48.239Z,5.60
2024-02-12T03:59:38.755Z,5.03
2024-02-12T04:00:12.466Z,6.87
2024-02-12T04:00:44.331Z,6.10
2024-02-12T04:01:16.244Z,5.33
2024-02-12T04:01:48.055Z,5.57
2024-02-12T04:02:20.668Z,5.37
2024-02-12T04:02:53.016Z,5.13
2024-02-12T04:03:24.936Z,5.43
2024-02-12T04:03:56.986Z,4.93
2024-02-12T04:04:30.058Z,4.97
2024-02-12T04:05:03.508Z,5.57
2024-02-12T04:05:36.500Z,5.20
2024-02-12T04:06:13.580Z,5.57
2024-02-12T04:06:46.119Z,4.60
2024-02-12T04:07:19.655Z,5.00
2024-02-12T04:07:51.541Z,4.70
2024-02-12T04:08:23.559Z,4.73
2024-02-12T04:08:55.407Z,4.80
2024-02-12T04:09:27.864Z,5.03
2024-02-12T04:10:00.649Z,5.00
2024-02-12T04:10:33.045Z,5.40
2024-02-12T04:11:06.316Z,5.13
2024-02-12T04:11:41.598Z,5.10
2024-02-12T04:12:13.547Z,5.30
2024-02-12T04:12:46.902Z,5.23
2024-02-12T04:13:20.541Z,5.17
2024-02-12T04:13:55.871Z,4.67
2024-02-12T04:14:29.040Z,5.00
2024-02-12T04:15:04.720Z,4.50
2024-02-12T04:15:40.112Z,4.50
2024-02-12T04:16:13.708Z,4.37
2024-02-12T04:16:53.131Z,4.83
2024-02-12T04:17:26.494Z,4.60
2024-02-12T04:17:58.755Z,4.93
2024-02-12T04:18:31.720Z,4.53
2024-02-12T04:19:11.784Z,4.53
2024-02-12T04:19:44.365Z,4.77
2024-02-12T04:20:19.625Z,5.07
2024-02-12T04:20:52.540Z,4.80
2024-02-12T04:21:25.960Z,5.10
2024-02-12T04:21:57.821Z,4.73
2024-02-12T04:22:30.172Z,4.60
2024-02-12T04:23:02.562Z,4.87
2024-02-12T04:23:34.446Z,4.57
2024-02-12T04:24:06.554Z,4.67
2024-02-12T04:24:42.276Z,5.27
2024-02-12T04:25:14.206Z,5.03
2024-02-12T04:25:46.709Z,5.20
2024-02-12T04:26:19.469Z,4.93
2024-02-12T04:26:51.704Z,5.00
2024-02-12T04:27:23.901Z,5.03
2024-02-12T04:28:02.203Z,4.80
2024-02-12T04:28:34.478Z,4.97
2024-02-12T04:29:06.951Z,4.57
2024-02-12T04:29:40.288Z,4.83
2024-02-12T04:30:12.355Z,5.07
2024-02-12T04:30:44.267Z,5.00
2024-02-12T04:31:16.250Z,5.20
2024-02-12T04:31:51.327Z,4.73
2024-02-12T04:32:23.247Z,4.97
2024-02-12T04:32:59.027Z,5.00
2024-02-12T04:33:34.039Z,4.67
2024-02-12T04:34:09.110Z,4.77
2024-02-12T04:34:42.204Z,5.60
2024-02-12T04:35:15.452Z,5.63
2024-02-12T04:35:47.429Z,5.47
2024-02-12T04:36:19.379Z,5.50
2024-02-12T04:36:56.443Z,5.80
2024-02-12T04:37:29.208Z,6.17
2024-02-12T04:38:01.254Z,6.00
2024-02-12T04:38:34.895Z,6.33
2024-02-12T04:39:07.033Z,6.70
2024-02-12T04:39:39.451Z,6.77
2024-02-12T04:40:11.447Z,6.80
2024-02-12T04:40:43.728Z,7.10
2024-02-12T04:41:15.893Z,7.20
2024-02-12T04:41:48.032Z,6.80
2024-02-12T04:42:22.297Z,6.67
2024-02-12T04:42:54.794Z,6.23
2024-02-12T04:43:26.632Z,6.27
2024-02-12T04:43:59.115Z,6.90
2024-02-12T04:44:31.370Z,6.70
2024-02-12T04:45:03.414Z,6.67
2024-02-12T04:45:35.503Z,7.23
2024-02-12T04:46:09.334Z,7.13
2024-02-12T04:46:42.866Z,7.20
2024-02-12T04:47:15.025Z,6.97
2024-02-12T04:47:47.425Z,7.03
2024-02-12T04:48:19.685Z,7.03
2024-02-12T04:48:52.464Z,7.27
2024-02-12T04:49:24.849Z,7.80
2024-02-12T04:49:56.889Z,8.20
2024-02-12T04:50:28.809Z,8.40
2024-02-12T04:51:00.809Z,8.17
2024-02-12T04:51:33.438Z,8.77
2024-02-12T04:52:07.173Z,8.27
2024-02-12T04:52:39.387Z,8.47
2024-02-12T04:53:11.427Z,8.03
2024-02-12T04:53:43.595Z,8.50
2024-02-12T04:54:18.082Z,9.03
2024-02-12T04:54:49.927Z,9.77
2024-02-12T04:55:22.064Z,10.23
2024-02-12T04:55:54.230Z,10.13
2024-02-12T04:56:26.354Z,10.40
2024-02-12T04:56:58.434Z,10.53
2024-02-12T04:57:30.239Z,11.00
2024-02-12T04:58:02.288Z,10.77
2024-02-12T04:58:36.937Z,10.67
2024-02-12T04:59:13.622Z,10.63
2024-02-12T04:59:45.620Z,10.70
2024-02-12T05:00:17.730Z,10.00
2024-02-12T05:00:49.716Z,9.17
2024-02-12T05:01:21.570Z,9.70
2024-02-12T05:01:56.140Z,9.60
2024-02-12T05:02:28.839Z,9.17
2024-02-12T05:03:01.032Z,9.60
2024-02-12T05:03:34.850Z,9.23
2024-02-12T05:04:06.902Z,9.50
2024-02-12T05:04:39.023Z,9.47
2024-02-12T05:05:12.893Z,9.70
2024-02-12T05:05:44.954Z,9.57
2024-02-12T05:06:20.083Z,10.53
2024-02-12T05:06:52.165Z,11.03
2024-02-12T05:07:27.489Z,11.53
2024-02-12T05:08:03.783Z,11.70
2024-02-12T05:08:36.247Z,10.90
2024-02-12T05:09:12.109Z,10.50
2024-02-12T05:09:44.772Z,10.47
2024-02-12T05:10:16.937Z,11.10
2024-02-12T05:10:50.953Z,11.17
2024-02-12T05:11:27.086Z,10.70
2024-02-12T05:11:59.048Z,10.27
2024-02-12T05:12:30.982Z,10.30
2024-02-12T05:13:02.829Z,9.73
2024-02-12T05:13:35.191Z,10.07
2024-02-12T05:14:07.474Z,10.93
2024-02-12T05:14:39.428Z,10.97
2024-02-12T05:15:11.299Z,11.10
2024-02-12T05:15:43.194Z,10.70
2024-02-12T05:16:15.708Z,11.63
2024-02-12T05:16:48.669Z,12.03
2024-02-12T05:17:29.674Z,11.47
2024-02-12T05:18:20.373Z,11.63
2024-02-12T05:19:14.101Z,12.67
2024-02-12T05:20:04.856Z,12.43
2024-02-12T05:20:58.101Z,12.93
2024-02-12T05:21:48.288Z,13.33
2024-02-12T05:22:35.671Z,13.03
2024-02-12T05:23:11.087Z,12.93
2024-02-12T05:23:43.003Z,12.80
2024-02-12T05:24:14.932Z,13.70
2024-02-12T05:24:49.273Z,14.47
2024-02-12T05:25:21.164Z,14.53
2024-02-12T05:25:53.065Z,14.97
2024-02-12T05:26:24.964Z,13.93
2024-02-12T05:26:57.846Z,12.83
2024-02-12T05:27:29.927Z,12.70
2024-02-12T05:28:01.829Z,13.13
2024-02-12T05:28:34.971Z,12.53
2024-02-12T05:29:08.324Z,12.47
2024-02-12T05:29:41.888Z,13.20
2024-02-12T05:30:15.168Z,14.57
2024-02-12T05:30:47.519Z,15.70
2024-02-12T05:31:19.356Z,15.00
2024-02-12T05:31:54.144Z,14.57
2024-02-12T05:32:26.072Z,14.60
2024-02-12T05:32:58.078Z,15.03
2024-02-12T05:33:32.993Z,15.83
2024-02-12T05:34:05.026Z,17.13
2024-02-12T05:34:38.325Z,16.90
2024-02-12T05:35:11.215Z,16.67
2024-02-12T05:35:43.676Z,15.90
2024-02-12T05:36:18.632Z,13.43
2024-02-12T05:36:57.067Z,13.87
2024-02-12T05:37:29.034Z,14.30
2024-02-12T05:38:00.974Z,13.93
2024-02-12T05:38:33.107Z,12.43
2024-02-12T05:39:05.025Z,13.30
2024-02-12T05:39:38.070Z,14.87
2024-02-12T05:40:10.295Z,15.43
2024-02-12T05:40:42.191Z,15.90
2024-02-12T05:41:14.755Z,15.27
2024-02-12T05:41:47.419Z,16.50
2024-02-12T05:42:19.328Z,16.43
2024-02-12T05:42:51.137Z,14.63
2024-02-12T05:43:22.979Z,15.83
2024-02-12T05:43:54.993Z,15.13
2024-02-12T05:44:27.042Z,15.97
2024-02-12T05:44:59.142Z,15.37
2024-02-12T05:45:32.022Z,13.33
2024-02-12T05:46:05.480Z,13.57
2024-02-12T05:46:38.060Z,25.40
2024-02-12T05:47:09.985Z,22.10
2024-02-12T05:47:42.434Z,20.43
2024-02-12T05:48:14.462Z,15.73
2024-02-12T05:48:46.417Z,16.00
2024-02-12T05:49:24.438Z,15.40
2024-02-12T05:49:56.452Z,16.10
2024-02-12T05:50:28.442Z,17.27
2024-02-12T05:51:00.349Z,17.63
2024-02-12T05:51:32.661Z,17.00
2024-02-12T05:52:05.075Z,17.40
2024-02-12T05:52:37.643Z,15.50
2024-02-12T05:53:09.713Z,15.70
2024-02-12T05:53:42.461Z,15.93
2024-02-12T05:54:14.281Z,15.33
2024-02-12T05:54:46.192Z,15.23
2024-02-12T05:55:18.069Z,14.10
2024-02-12T05:55:50.929Z,14.13
2024-02-12T05:56:22.871Z,13.67
2024-02-12T05:56:54.730Z,13.70
2024-02-12T05:57:26.590Z,15.23
2024-02-12T05:57:58.443Z,16.60
2024-02-12T05:58:30.282Z,15.30
2024-02-12T05:59:02.252Z,16.57
2024-02-12T05:59:35.309Z,16.87
2024-02-12T06:00:07.744Z,16.90
2024-02-12T06:00:39.706Z,15.67
2024-02-12T06:01:12.291Z,15.70
2024-02-12T06:01:44.270Z,16.00
2024-02-12T06:02:16.199Z,14.47
2024-02-12T06:02:48.045Z,13.43
2024-02-12T06:03:19.946Z,12.73
2024-02-12T06:03:51.845Z,13.00
2024-02-12T06:04:23.813Z,15.87
2024-02-12T06:04:55.826Z,21.63
2024-02-12T06:05:27.879Z,25.93
2024-02-12T06:06:00.196Z,21.17
2024-02-12T06:06:32.846Z,17.20
2024-02-12T06:07:05.796Z,15.70
2024-02-12T06:07:40.930Z,15.33
2024-02-12T06:08:13.582Z,15.80
2024-02-12T06:08:45.507Z,16.97
2024-02-12T06:09:18.663Z,24.10
2024-02-12T06:09:50.540Z,36.03
2024-02-12T06:10:22.478Z,32.33
2024-02-12T06:10:54.319Z,26.47
2024-02-12T06:11:26.412Z,20.90
2024-02-12T06:11:59.160Z,19.43
2024-02-12T06:12:31.498Z,17.37
2024-02-12T06:13:03.968Z,16.17
2024-02-12T06:13:36.005Z,15.87
2024-02-12T06:14:41.005Z,14.93
2024-02-12T06:15:13.065Z,14.93
2024-02-12T06:15:45.374Z,16.57
2024-02-12T06:16:18.038Z,15.33
2024-02-12T06:16:50.375Z,15.43
2024-02-12T06:17:22.456Z,16.50
2024-02-12T06:17:54.494Z,15.77
2024-02-12T06:18:27.045Z,15.57
2024-02-12T06:18:59.240Z,15.83
2024-02-12T06:19:31.201Z,14.57
2024-02-12T06:20:07.230Z,13.93
2024-02-12T06:20:39.145Z,13.57
2024-02-12T06:21:11.116Z,13.27
2024-02-12T06:21:46.921Z,13.87
2024-02-12T06:22:19.011Z,13.50
2024-02-12T06:22:50.957Z,14.00
2024-02-12T06:23:22.882Z,14.97
2024-02-12T06:23:54.734Z,15.13
2024-02-12T06:24:26.576Z,14.23
2024-02-12T06:24:58.462Z,12.37
2024-02-12T06:25:30.433Z,12.13
2024-02-12T06:26:02.569Z,12.97
2024-02-12T06:26:34.817Z,13.03
2024-02-12T06:27:06.965Z,13.40
2024-02-12T06:27:38.905Z,14.53
2024-02-12T06:28:10.811Z,15.03
2024-02-12T06:28:44.180Z,14.53
2024-02-12T06:29:16.029Z,14.03
2024-02-12T06:29:47.906Z,12.83
2024-02-12T06:30:20.443Z,13.73
2024-02-12T06:30:52.289Z,14.73
2024-02-12T06:31:24.183Z,14.40
2024-02-12T06:31:56.105Z,14.17
2024-02-12T06:32:28.056Z,11.57
2024-02-12T06:33:00.239Z,11.77
2024-02-12T06:33:32.348Z,14.13
2024-02-12T06:34:04.465Z,14.77
2024-02-12T06:34:36.401Z,15.30
2024-02-12T06:35:09.174Z,14.70
2024-02-12T06:35:41.096Z,13.87
2024-02-12T06:36:13.036Z,14.10
2024-02-12T06:36:44.894Z,14.20
2024-02-12T06:37:16.824Z,14.73
2024-02-12T06:37:48.679Z,13.90
2024-02-12T06:38:20.568Z,14.97
2024-02-12T06:38:52.501Z,14.20
2024-02-12T06:39:28.738Z,13.77
2024-02-12T06:40:00.660Z,12.77
2024-02-12T06:40:32.612Z,13.83
2024-02-12T06:41:04.582Z,14.43
2024-02-12T06:41:36.629Z,12.87
2024-02-12T06:42:08.502Z,12.80
2024-02-12T06:42:40.910Z,13.63
2024-02-12T06:43:13.118Z,12.03
2024-02-12T06:43:44.971Z,11.57
2024-02-12T06:44:17.234Z,12.63
2024-02-12T06:44:49.114Z,13.70
2024-02-12T06:45:21.077Z,14.57
2024-02-12T06:45:52.925Z,15.07
2024-02-12T06:46:25.033Z,15.27
2024-02-12T06:46:56.889Z,14.70
2024-02-12T06:47:30.566Z,13.50
2024-02-12T06:48:02.595Z,12.90
2024-02-12T06:48:34.970Z,13.30
2024-02-12T06:49:06.954Z,13.00
2024-02-12T06:49:38.795Z,12.87
2024-02-12T06:50:11.367Z,11.43
2024-02-12T06:50:43.942Z,11.50
2024-02-12T06:51:15.879Z,10.63
2024-02-12T06:51:48.812Z,11.03
2024-02-12T06:52:20.702Z,11.60
2024-02-12T06:52:53.987Z,11.07
2024-02-12T06:53:26.119Z,10.50
2024-02-12T06:53:57.986Z,10.80
2024-02-12T06:54:30.339Z,10.63
2024-02-12T06:55:02.200Z,11.10
2024-02-12T06:55:34.227Z,11.17
2024-02-12T06:56:06.833Z,11.27
2024-02-12T06:56:42.929Z,11.70
2024-02-12T06:57:15.827Z,11.33
2024-02-12T06:57:47.726Z,11.47
2024-02-12T06:58:19.603Z,12.50
2024-02-12T06:58:51.496Z,12.47
2024-02-12T06:59:23.479Z,13.40
2024-02-12T06:59:55.467Z,14.17
2024-02-12T07:00:27.533Z,14.47
2024-02-12T07:00:59.486Z,14.07
2024-02-12T07:01:31.381Z,14.10
2024-02-12T07:02:03.302Z,14.03
2024-02-12T07:02:37.148Z,12.73
2024-02-12T07:03:09.084Z,11.97
2024-02-12T07:03:41.772Z,13.30
2024-02-12T07:04:13.665Z,13.77
2024-02-12T07:04:45.724Z,16.13
2024-02-12T07:05:19.684Z,18.53
2024-02-12T07:05:52.280Z,17.77
2024-02-12T07:06:24.272Z,16.03
2024-02-12T07:06:56.278Z,14.33
2024-02-12T07:07:28.153Z,13.43
2024-02-12T07:08:00.256Z,13.30
2024-02-12T07:08:32.125Z,13.23
2024-02-12T07:09:04.205Z,12.30
2024-02-12T07:09:38.959Z,11.63
2024-02-12T07:10:10.958Z,12.60
2024-02-12T07:10:42.804Z,12.57
2024-02-12T07:11:16.074Z,13.03
2024-02-12T07:11:48.193Z,16.33
2024-02-12T07:12:20.152Z,13.93
2024-02-12T07:12:52.293Z,12.17
2024-02-12T07:13:24.140Z,11.23
2024-02-12T07:13:56.037Z,10.53
2024-02-12T07:14:28.446Z,9.60
2024-02-12T07:15:00.531Z,9.77
2024-02-12T07:15:32.991Z,9.80
2024-02-12T07:16:05.331Z,10.10
2024-02-12T07:16:37.282Z,9.57
2024-02-12T07:17:10.425Z,9.43
2024-02-12T07:17:42.550Z,9.33
2024-02-12T07:18:14.696Z,10.03
2024-02-12T07:18:49.619Z,9.07
2024-02-12T07:19:21.788Z,10.10